sensor_id;sensor_type;location;lat;lon;timestamp;P1;durP1;ratioP1;P2;durP2;ratioP2
5801;SDS011;2927;49.366;8.530;2023-04-21T00:00:43;21.63;;;13.10;;
5801;SDS011;2927;49.366;8.530;2023-04-21T00:03:08;23.00;;;14.60;;
5801;SDS011;2927;49.366;8.530;2023-04-21T00:05:34;23.07;;;14.50;;
5801;SDS011;2927;49.366;8.530;2023-04-21T00:07:59;23.83;;;14.33;;
5801;SDS011;2927;49.366;8.530;2023-04-21T00:10:25;26.00;;;15.53;;
5801;SDS011;2927;49.366;8.530;2023-04-21T00:12:50;24.17;;;14.90;;
5801;SDS011;2927;49.366;8.530;2023-04-21T00:15:16;22.00;;;13.53;;
5801;SDS011;2927;49.366;8.530;2023-04-21T00:17:41;22.17;;;13.47;;
5801;SDS011;2927;49.366;8.530;2023-04-21T00:20:07;21.87;;;13.27;;
5801;SDS011;2927;49.366;8.530;2023-04-21T00:22:34;23.60;;;14.53;;
5801;SDS011;2927;49.366;8.530;2023-04-21T00:25:00;27.23;;;15.00;;
5801;SDS011;2927;49.366;8.530;2023-04-21T00:27:26;24.73;;;15.03;;
5801;SDS011;2927;49.366;8.530;2023-04-21T00:29:51;27.10;;;13.50;;
5801;SDS011;2927;49.366;8.530;2023-04-21T00:32:17;22.40;;;12.80;;
5801;SDS011;2927;49.366;8.530;2023-04-21T00:34:42;25.20;;;12.57;;
5801;SDS011;2927;49.366;8.530;2023-04-21T00:37:08;21.20;;;12.70;;
5801;SDS011;2927;49.366;8.530;2023-04-21T00:39:33;20.27;;;13.13;;
5801;SDS011;2927;49.366;8.530;2023-04-21T00:41:59;18.53;;;12.43;;
5801;SDS011;2927;49.366;8.530;2023-04-21T00:44:25;18.80;;;11.60;;
5801;SDS011;2927;49.366;8.530;2023-04-21T00:46:50;22.47;;;12.20;;
5801;SDS011;2927;49.366;8.530;2023-04-21T00:49:16;24.63;;;13.83;;
5801;SDS011;2927;49.366;8.530;2023-04-21T00:51:41;24.33;;;14.30;;
5801;SDS011;2927;49.366;8.530;2023-04-21T00:54:07;21.73;;;13.10;;
5801;SDS011;2927;49.366;8.530;2023-04-21T00:56:34;21.03;;;12.63;;
5801;SDS011;2927;49.366;8.530;2023-04-21T00:59:00;21.53;;;13.83;;
5801;SDS011;2927;49.366;8.530;2023-04-21T01:01:30;22.97;;;12.60;;
5801;SDS011;2927;49.366;8.530;2023-04-21T01:03:58;23.87;;;14.23;;
5801;SDS011;2927;49.366;8.530;2023-04-21T01:06:30;26.87;;;15.00;;
5801;SDS011;2927;49.366;8.530;2023-04-21T01:08:58;23.70;;;13.50;;
5801;SDS011;2927;49.366;8.530;2023-04-21T01:11:23;24.80;;;14.23;;
5801;SDS011;2927;49.366;8.530;2023-04-21T01:13:52;23.70;;;14.90;;
5801;SDS011;2927;49.366;8.530;2023-04-21T01:16:18;28.70;;;15.17;;
5801;SDS011;2927;49.366;8.530;2023-04-21T01:18:45;26.00;;;15.20;;
5801;SDS011;2927;49.366;8.530;2023-04-21T01:21:10;21.80;;;13.83;;
5801;SDS011;2927;49.366;8.530;2023-04-21T01:23:37;26.20;;;14.00;;
5801;SDS011;2927;49.366;8.530;2023-04-21T01:26:05;25.23;;;14.70;;
5801;SDS011;2927;49.366;8.530;2023-04-21T01:28:31;26.60;;;14.57;;
5801;SDS011;2927;49.366;8.530;2023-04-21T01:30:57;27.60;;;15.47;;
5801;SDS011;2927;49.366;8.530;2023-04-21T01:33:22;25.43;;;14.93;;
5801;SDS011;2927;49.366;8.530;2023-04-21T01:35:48;26.47;;;15.20;;
5801;SDS011;2927;49.366;8.530;2023-04-21T01:38:14;25.57;;;15.00;;
5801;SDS011;2927;49.366;8.530;2023-04-21T01:40:44;28.90;;;14.73;;
5801;SDS011;2927;49.366;8.530;2023-04-21T01:43:12;23.80;;;15.37;;
5801;SDS011;2927;49.366;8.530;2023-04-21T01:45:38;22.83;;;12.50;;
5801;SDS011;2927;49.366;8.530;2023-04-21T01:48:03;28.33;;;16.13;;
5801;SDS011;2927;49.366;8.530;2023-04-21T01:50:29;26.37;;;14.23;;
5801;SDS011;2927;49.366;8.530;2023-04-21T01:52:55;23.67;;;13.53;;
5801;SDS011;2927;49.366;8.530;2023-04-21T01:55:21;21.73;;;13.03;;
5801;SDS011;2927;49.366;8.530;2023-04-21T01:57:47;24.43;;;13.33;;
5801;SDS011;2927;49.366;8.530;2023-04-21T02:00:12;18.13;;;12.13;;
5801;SDS011;2927;49.366;8.530;2023-04-21T02:02:38;21.27;;;13.47;;
5801;SDS011;2927;49.366;8.530;2023-04-21T02:05:04;20.97;;;13.93;;
5801;SDS011;2927;49.366;8.530;2023-04-21T02:07:30;21.83;;;13.00;;
5801;SDS011;2927;49.366;8.530;2023-04-21T02:09:55;16.90;;;11.60;;
5801;SDS011;2927;49.366;8.530;2023-04-21T02:12:21;21.13;;;12.30;;
5801;SDS011;2927;49.366;8.530;2023-04-21T02:14:46;24.43;;;13.27;;
5801;SDS011;2927;49.366;8.530;2023-04-21T02:17:13;22.77;;;13.27;;
5801;SDS011;2927;49.366;8.530;2023-04-21T02:19:38;20.00;;;13.07;;
5801;SDS011;2927;49.366;8.530;2023-04-21T02:22:04;21.90;;;12.37;;
5801;SDS011;2927;49.366;8.530;2023-04-21T02:24:32;22.43;;;12.20;;
5801;SDS011;2927;49.366;8.530;2023-04-21T02:26:58;22.43;;;13.80;;
5801;SDS011;2927;49.366;8.530;2023-04-21T02:29:23;21.47;;;13.37;;
5801;SDS011;2927;49.366;8.530;2023-04-21T02:31:49;22.67;;;13.40;;
5801;SDS011;2927;49.366;8.530;2023-04-21T02:34:15;20.77;;;12.73;;
5801;SDS011;2927;49.366;8.530;2023-04-21T02:36:40;24.50;;;14.00;;
5801;SDS011;2927;49.366;8.530;2023-04-21T02:39:06;20.97;;;12.73;;
5801;SDS011;2927;49.366;8.530;2023-04-21T02:41:31;22.93;;;13.73;;
5801;SDS011;2927;49.366;8.530;2023-04-21T02:43:57;23.17;;;13.53;;
5801;SDS011;2927;49.366;8.530;2023-04-21T02:46:22;22.20;;;13.00;;
5801;SDS011;2927;49.366;8.530;2023-04-21T02:48:48;20.43;;;12.33;;
5801;SDS011;2927;49.366;8.530;2023-04-21T02:51:13;21.70;;;13.63;;
5801;SDS011;2927;49.366;8.530;2023-04-21T02:53:39;21.23;;;12.27;;
5801;SDS011;2927;49.366;8.530;2023-04-21T02:56:06;23.50;;;13.93;;
5801;SDS011;2927;49.366;8.530;2023-04-21T02:58:33;24.47;;;13.50;;
5801;SDS011;2927;49.366;8.530;2023-04-21T03:00:59;22.07;;;13.63;;
5801;SDS011;2927;49.366;8.530;2023-04-21T03:03:25;21.00;;;12.53;;
5801;SDS011;2927;49.366;8.530;2023-04-21T03:05:57;24.70;;;14.70;;
5801;SDS011;2927;49.366;8.530;2023-04-21T03:08:24;26.53;;;14.37;;
5801;SDS011;2927;49.366;8.530;2023-04-21T03:10:49;25.07;;;14.23;;
5801;SDS011;2927;49.366;8.530;2023-04-21T03:13:15;25.87;;;13.73;;
5801;SDS011;2927;49.366;8.530;2023-04-21T03:15:41;27.50;;;14.90;;
5801;SDS011;2927;49.366;8.530;2023-04-21T03:18:07;22.30;;;13.57;;
5801;SDS011;2927;49.366;8.530;2023-04-21T03:20:32;26.87;;;15.63;;
5801;SDS011;2927;49.366;8.530;2023-04-21T03:22:58;27.50;;;14.67;;
5801;SDS011;2927;49.366;8.530;2023-04-21T03:25:23;31.60;;;15.80;;
5801;SDS011;2927;49.366;8.530;2023-04-21T03:27:51;31.03;;;16.13;;
5801;SDS011;2927;49.366;8.530;2023-04-21T03:30:21;34.40;;;16.20;;
5801;SDS011;2927;49.366;8.530;2023-04-21T03:32:47;67.40;;;19.50;;
5801;SDS011;2927;49.366;8.530;2023-04-21T03:35:14;145.50;;;20.77;;
5801;SDS011;2927;49.366;8.530;2023-04-21T03:37:40;104.40;;;18.47;;
5801;SDS011;2927;49.366;8.530;2023-04-21T03:40:05;129.67;;;20.17;;
5801;SDS011;2927;49.366;8.530;2023-04-21T03:42:32;176.43;;;24.77;;
5801;SDS011;2927;49.366;8.530;2023-04-21T03:45:01;70.50;;;18.47;;
5801;SDS011;2927;49.366;8.530;2023-04-21T03:47:27;87.37;;;19.20;;
5801;SDS011;2927;49.366;8.530;2023-04-21T03:49:53;64.37;;;16.17;;
5801;SDS011;2927;49.366;8.530;2023-04-21T03:52:18;68.70;;;18.40;;
5801;SDS011;2927;49.366;8.530;2023-04-21T03:54:43;57.50;;;16.40;;
5801;SDS011;2927;49.366;8.530;2023-04-21T03:57:09;66.30;;;17.63;;
5801;SDS011;2927;49.366;8.530;2023-04-21T03:59:35;67.93;;;17.90;;
5801;SDS011;2927;49.366;8.530;2023-04-21T04:02:00;103.20;;;19.30;;
5801;SDS011;2927;49.366;8.530;2023-04-21T04:04:26;112.27;;;20.90;;
5801;SDS011;2927;49.366;8.530;2023-04-21T04:06:51;92.50;;;19.47;;
5801;SDS011;2927;49.366;8.530;2023-04-21T04:09:17;143.03;;;18.80;;
5801;SDS011;2927;49.366;8.530;2023-04-21T04:11:42;122.97;;;19.67;;
5801;SDS011;2927;49.366;8.530;2023-04-21T04:14:08;300.83;;;24.17;;
5801;SDS011;2927;49.366;8.530;2023-04-21T04:16:34;177.60;;;20.80;;
5801;SDS011;2927;49.366;8.530;2023-04-21T04:18:59;223.00;;;21.30;;
5801;SDS011;2927;49.366;8.530;2023-04-21T04:21:25;179.70;;;20.93;;
5801;SDS011;2927;49.366;8.530;2023-04-21T04:23:52;296.07;;;22.67;;
5801;SDS011;2927;49.366;8.530;2023-04-21T04:26:17;311.77;;;24.13;;
5801;SDS011;2927;49.366;8.530;2023-04-21T04:28:44;330.47;;;25.83;;
5801;SDS011;2927;49.366;8.530;2023-04-21T04:31:10;368.20;;;31.00;;
5801;SDS011;2927;49.366;8.530;2023-04-21T04:33:39;144.80;;;18.57;;
5801;SDS011;2927;49.366;8.530;2023-04-21T04:36:06;115.40;;;19.30;;
5801;SDS011;2927;49.366;8.530;2023-04-21T04:38:32;157.80;;;19.27;;
5801;SDS011;2927;49.366;8.530;2023-04-21T04:41:01;124.23;;;20.63;;
5801;SDS011;2927;49.366;8.530;2023-04-21T04:43:27;190.03;;;28.93;;
5801;SDS011;2927;49.366;8.530;2023-04-21T04:45:53;131.97;;;23.90;;
5801;SDS011;2927;49.366;8.530;2023-04-21T04:48:18;217.13;;;20.97;;
5801;SDS011;2927;49.366;8.530;2023-04-21T04:50:44;134.03;;;20.20;;
5801;SDS011;2927;49.366;8.530;2023-04-21T04:53:10;51.07;;;16.13;;
5801;SDS011;2927;49.366;8.530;2023-04-21T04:55:36;143.07;;;20.20;;
5801;SDS011;2927;49.366;8.530;2023-04-21T04:58:02;81.60;;;17.40;;
5801;SDS011;2927;49.366;8.530;2023-04-21T05:00:28;60.30;;;17.63;;
5801;SDS011;2927;49.366;8.530;2023-04-21T05:02:53;166.03;;;22.03;;
5801;SDS011;2927;49.366;8.530;2023-04-21T05:05:19;83.87;;;19.70;;
5801;SDS011;2927;49.366;8.530;2023-04-21T05:07:46;80.30;;;17.50;;
5801;SDS011;2927;49.366;8.530;2023-04-21T05:10:11;44.47;;;17.80;;
5801;SDS011;2927;49.366;8.530;2023-04-21T05:12:37;102.73;;;20.27;;
5801;SDS011;2927;49.366;8.530;2023-04-21T05:15:03;48.47;;;20.33;;
5801;SDS011;2927;49.366;8.530;2023-04-21T05:17:30;82.93;;;19.53;;
5801;SDS011;2927;49.366;8.530;2023-04-21T05:19:57;53.30;;;18.27;;
5801;SDS011;2927;49.366;8.530;2023-04-21T05:22:23;109.03;;;21.43;;
5801;SDS011;2927;49.366;8.530;2023-04-21T05:24:48;51.73;;;19.63;;
5801;SDS011;2927;49.366;8.530;2023-04-21T05:27:14;79.77;;;19.10;;
5801;SDS011;2927;49.366;8.530;2023-04-21T05:29:39;50.33;;;18.30;;
5801;SDS011;2927;49.366;8.530;2023-04-21T05:32:05;46.03;;;17.07;;
5801;SDS011;2927;49.366;8.530;2023-04-21T05:34:31;44.83;;;17.90;;
5801;SDS011;2927;49.366;8.530;2023-04-21T05:36:56;41.53;;;20.37;;
5801;SDS011;2927;49.366;8.530;2023-04-21T05:39:22;49.00;;;18.13;;
5801;SDS011;2927;49.366;8.530;2023-04-21T05:41:47;47.90;;;18.47;;
5801;SDS011;2927;49.366;8.530;2023-04-21T05:44:15;48.63;;;18.13;;
5801;SDS011;2927;49.366;8.530;2023-04-21T05:46:41;59.00;;;19.73;;
5801;SDS011;2927;49.366;8.530;2023-04-21T05:49:07;40.33;;;20.50;;
5801;SDS011;2927;49.366;8.530;2023-04-21T05:51:32;43.43;;;18.60;;
5801;SDS011;2927;49.366;8.530;2023-04-21T05:53:58;49.57;;;23.37;;
5801;SDS011;2927;49.366;8.530;2023-04-21T05:56:23;43.90;;;22.50;;
5801;SDS011;2927;49.366;8.530;2023-04-21T05:58:49;53.37;;;22.17;;
5801;SDS011;2927;49.366;8.530;2023-04-21T06:01:14;52.23;;;19.93;;
5801;SDS011;2927;49.366;8.530;2023-04-21T06:03:40;47.27;;;25.57;;
5801;SDS011;2927;49.366;8.530;2023-04-21T06:06:05;46.63;;;23.97;;
5801;SDS011;2927;49.366;8.530;2023-04-21T06:08:31;30.97;;;20.23;;
5801;SDS011;2927;49.366;8.530;2023-04-21T06:10:57;36.33;;;17.60;;
5801;SDS011;2927;49.366;8.530;2023-04-21T06:13:22;32.23;;;18.30;;
5801;SDS011;2927;49.366;8.530;2023-04-21T06:15:48;40.50;;;18.33;;
5801;SDS011;2927;49.366;8.530;2023-04-21T06:18:14;29.13;;;17.73;;
5801;SDS011;2927;49.366;8.530;2023-04-21T06:20:40;48.37;;;18.17;;
5801;SDS011;2927;49.366;8.530;2023-04-21T06:23:05;31.43;;;17.30;;
5801;SDS011;2927;49.366;8.530;2023-04-21T06:25:31;27.97;;;16.80;;
5801;SDS011;2927;49.366;8.530;2023-04-21T06:27:56;33.17;;;16.63;;
5801;SDS011;2927;49.366;8.530;2023-04-21T06:30:22;20.30;;;14.50;;
5801;SDS011;2927;49.366;8.530;2023-04-21T06:32:48;36.03;;;15.77;;
5801;SDS011;2927;49.366;8.530;2023-04-21T06:35:13;35.63;;;17.10;;
5801;SDS011;2927;49.366;8.530;2023-04-21T06:37:42;42.93;;;17.33;;
5801;SDS011;2927;49.366;8.530;2023-04-21T06:40:08;27.97;;;17.60;;
5801;SDS011;2927;49.366;8.530;2023-04-21T06:42:36;23.90;;;16.00;;
5801;SDS011;2927;49.366;8.530;2023-04-21T06:45:01;22.53;;;15.47;;
5801;SDS011;2927;49.366;8.530;2023-04-21T06:47:27;20.60;;;14.23;;
5801;SDS011;2927;49.366;8.530;2023-04-21T06:49:53;15.07;;;12.17;;
5801;SDS011;2927;49.366;8.530;2023-04-21T06:52:18;19.70;;;12.00;;
5801;SDS011;2927;49.366;8.530;2023-04-21T06:54:44;17.97;;;12.27;;
5801;SDS011;2927;49.366;8.530;2023-04-21T06:57:09;15.70;;;12.63;;
5801;SDS011;2927;49.366;8.530;2023-04-21T06:59:35;15.40;;;10.83;;
5801;SDS011;2927;49.366;8.530;2023-04-21T07:02:01;18.53;;;12.30;;
5801;SDS011;2927;49.366;8.530;2023-04-21T07:04:27;17.03;;;10.87;;
5801;SDS011;2927;49.366;8.530;2023-04-21T07:06:55;29.00;;;12.37;;
5801;SDS011;2927;49.366;8.530;2023-04-21T07:09:21;38.67;;;12.80;;
5801;SDS011;2927;49.366;8.530;2023-04-21T07:11:47;28.97;;;12.50;;
5801;SDS011;2927;49.366;8.530;2023-04-21T07:14:12;16.83;;;11.50;;
5801;SDS011;2927;49.366;8.530;2023-04-21T07:16:38;32.63;;;13.93;;
5801;SDS011;2927;49.366;8.530;2023-04-21T07:19:03;21.57;;;15.40;;
5801;SDS011;2927;49.366;8.530;2023-04-21T07:21:29;26.20;;;14.30;;
5801;SDS011;2927;49.366;8.530;2023-04-21T07:23:56;21.70;;;15.70;;
5801;SDS011;2927;49.366;8.530;2023-04-21T07:26:22;60.73;;;18.63;;
5801;SDS011;2927;49.366;8.530;2023-04-21T07:28:48;25.00;;;15.90;;
5801;SDS011;2927;49.366;8.530;2023-04-21T07:31:14;45.53;;;16.77;;
5801;SDS011;2927;49.366;8.530;2023-04-21T07:33:40;51.77;;;16.47;;
5801;SDS011;2927;49.366;8.530;2023-04-21T07:36:05;31.33;;;16.43;;
5801;SDS011;2927;49.366;8.530;2023-04-21T07:38:31;23.97;;;16.60;;
5801;SDS011;2927;49.366;8.530;2023-04-21T07:40:56;39.53;;;15.60;;
5801;SDS011;2927;49.366;8.530;2023-04-21T07:43:23;25.70;;;16.20;;
5801;SDS011;2927;49.366;8.530;2023-04-21T07:45:49;19.83;;;13.50;;
5801;SDS011;2927;49.366;8.530;2023-04-21T07:48:16;19.90;;;14.23;;
5801;SDS011;2927;49.366;8.530;2023-04-21T07:50:41;21.93;;;14.93;;
5801;SDS011;2927;49.366;8.530;2023-04-21T07:53:07;22.00;;;15.40;;
5801;SDS011;2927;49.366;8.530;2023-04-21T07:55:33;23.43;;;14.50;;
5801;SDS011;2927;49.366;8.530;2023-04-21T07:58:01;16.40;;;12.80;;
5801;SDS011;2927;49.366;8.530;2023-04-21T08:00:28;19.93;;;12.93;;
5801;SDS011;2927;49.366;8.530;2023-04-21T08:02:53;15.60;;;12.43;;
5801;SDS011;2927;49.366;8.530;2023-04-21T08:05:19;16.60;;;12.90;;
5801;SDS011;2927;49.366;8.530;2023-04-21T08:07:44;17.50;;;12.50;;
5801;SDS011;2927;49.366;8.530;2023-04-21T08:10:10;15.53;;;11.93;;
5801;SDS011;2927;49.366;8.530;2023-04-21T08:12:36;14.80;;;12.73;;
5801;SDS011;2927;49.366;8.530;2023-04-21T08:15:01;13.90;;;12.30;;
5801;SDS011;2927;49.366;8.530;2023-04-21T08:17:29;14.30;;;12.27;;
5801;SDS011;2927;49.366;8.530;2023-04-21T08:19:55;14.43;;;12.93;;
5801;SDS011;2927;49.366;8.530;2023-04-21T08:22:21;14.70;;;13.20;;
5801;SDS011;2927;49.366;8.530;2023-04-21T08:24:46;14.43;;;13.03;;
5801;SDS011;2927;49.366;8.530;2023-04-21T08:27:12;16.00;;;13.30;;
5801;SDS011;2927;49.366;8.530;2023-04-21T08:29:38;17.00;;;13.50;;
5801;SDS011;2927;49.366;8.530;2023-04-21T08:32:03;16.17;;;12.90;;
5801;SDS011;2927;49.366;8.530;2023-04-21T08:34:29;17.03;;;13.70;;
5801;SDS011;2927;49.366;8.530;2023-04-21T08:36:54;13.00;;;11.80;;
5801;SDS011;2927;49.366;8.530;2023-04-21T08:39:20;12.50;;;10.87;;
5801;SDS011;2927;49.366;8.530;2023-04-21T08:41:46;13.33;;;11.90;;
5801;SDS011;2927;49.366;8.530;2023-04-21T08:44:12;13.20;;;12.00;;
5801;SDS011;2927;49.366;8.530;2023-04-21T08:46:37;12.70;;;11.47;;
5801;SDS011;2927;49.366;8.530;2023-04-21T08:49:03;13.25;;;11.90;;
5801;SDS011;2927;49.366;8.530;2023-04-21T08:51:30;18.15;;;13.77;;
5801;SDS011;2927;49.366;8.530;2023-04-21T08:53:56;12.23;;;11.00;;
5801;SDS011;2927;49.366;8.530;2023-04-21T08:56:23;11.68;;;10.68;;
5801;SDS011;2927;49.366;8.530;2023-04-21T08:58:49;13.35;;;9.82;;
5801;SDS011;2927;49.366;8.530;2023-04-21T09:01:15;11.13;;;10.13;;
5801;SDS011;2927;49.366;8.530;2023-04-21T09:03:40;11.63;;;10.40;;
5801;SDS011;2927;49.366;8.530;2023-04-21T09:06:06;11.05;;;9.88;;
5801;SDS011;2927;49.366;8.530;2023-04-21T09:08:35;12.00;;;10.80;;
5801;SDS011;2927;49.366;8.530;2023-04-21T09:11:02;13.25;;;11.85;;
5801;SDS011;2927;49.366;8.530;2023-04-21T09:13:28;12.45;;;11.15;;
5801;SDS011;2927;49.366;8.530;2023-04-21T09:15:55;11.63;;;10.43;;
5801;SDS011;2927;49.366;8.530;2023-04-21T09:18:22;14.18;;;12.77;;
5801;SDS011;2927;49.366;8.530;2023-04-21T09:20:50;15.52;;;13.93;;
5801;SDS011;2927;49.366;8.530;2023-04-21T09:23:17;16.33;;;14.32;;
5801;SDS011;2927;49.366;8.530;2023-04-21T09:25:44;16.63;;;13.52;;
5801;SDS011;2927;49.366;8.530;2023-04-21T09:28:11;16.33;;;14.63;;
5801;SDS011;2927;49.366;8.530;2023-04-21T09:30:38;20.45;;;15.52;;
5801;SDS011;2927;49.366;8.530;2023-04-21T09:33:05;17.45;;;14.88;;
5801;SDS011;2927;49.366;8.530;2023-04-21T09:35:32;16.77;;;15.02;;
5801;SDS011;2927;49.366;8.530;2023-04-21T09:37:59;25.13;;;16.40;;
5801;SDS011;2927;49.366;8.530;2023-04-21T09:40:27;18.92;;;16.92;;
5801;SDS011;2927;49.366;8.530;2023-04-21T09:42:55;18.33;;;16.55;;
5801;SDS011;2927;49.366;8.530;2023-04-21T09:45:24;16.90;;;15.07;;
5801;SDS011;2927;49.366;8.530;2023-04-21T09:47:52;20.30;;;16.83;;
5801;SDS011;2927;49.366;8.530;2023-04-21T09:50:20;16.02;;;14.35;;
5801;SDS011;2927;49.366;8.530;2023-04-21T09:52:49;16.42;;;14.45;;
5801;SDS011;2927;49.366;8.530;2023-04-21T09:55:16;15.15;;;13.65;;
5801;SDS011;2927;49.366;8.530;2023-04-21T09:57:43;17.80;;;14.10;;
5801;SDS011;2927;49.366;8.530;2023-04-21T10:00:12;14.32;;;12.98;;
5801;SDS011;2927;49.366;8.530;2023-04-21T10:05:08;15.35;;;11.02;;
5801;SDS011;2927;49.366;8.530;2023-04-21T10:07:35;18.90;;;14.50;;
5801;SDS011;2927;49.366;8.530;2023-04-21T10:10:01;17.95;;;12.80;;
5801;SDS011;2927;49.366;8.530;2023-04-21T10:12:27;11.90;;;10.70;;
5801;SDS011;2927;49.366;8.530;2023-04-21T10:14:55;14.03;;;12.20;;
5801;SDS011;2927;49.366;8.530;2023-04-21T10:17:21;16.10;;;11.60;;
5801;SDS011;2927;49.366;8.530;2023-04-21T10:19:50;14.40;;;11.17;;
5801;SDS011;2927;49.366;8.530;2023-04-21T10:22:26;15.70;;;12.03;;
5801;SDS011;2927;49.366;8.530;2023-04-21T10:24:54;14.07;;;11.03;;
5801;SDS011;2927;49.366;8.530;2023-04-21T10:27:30;15.63;;;12.17;;
5801;SDS011;2927;49.366;8.530;2023-04-21T10:29:59;15.57;;;11.83;;
5801;SDS011;2927;49.366;8.530;2023-04-21T10:32:38;17.27;;;12.47;;
5801;SDS011;2927;49.366;8.530;2023-04-21T10:35:07;14.00;;;11.30;;
5801;SDS011;2927;49.366;8.530;2023-04-21T10:37:34;18.70;;;12.63;;
5801;SDS011;2927;49.366;8.530;2023-04-21T10:40:00;16.90;;;12.40;;
5801;SDS011;2927;49.366;8.530;2023-04-21T10:42:26;15.27;;;11.00;;
5801;SDS011;2927;49.366;8.530;2023-04-21T10:52:38;18.37;;;11.27;;
5801;SDS011;2927;49.366;8.530;2023-04-21T10:55:05;15.23;;;11.10;;
5801;SDS011;2927;49.366;8.530;2023-04-21T10:57:33;13.37;;;9.77;;
5801;SDS011;2927;49.366;8.530;2023-04-21T10:59:59;12.07;;;9.60;;
5801;SDS011;2927;49.366;8.530;2023-04-21T11:02:24;14.43;;;9.53;;
5801;SDS011;2927;49.366;8.530;2023-04-21T11:04:51;13.97;;;10.43;;
5801;SDS011;2927;49.366;8.530;2023-04-21T11:07:22;16.17;;;9.00;;
5801;SDS011;2927;49.366;8.530;2023-04-21T11:09:55;12.17;;;9.07;;
5801;SDS011;2927;49.366;8.530;2023-04-21T11:12:25;14.77;;;9.40;;
5801;SDS011;2927;49.366;8.530;2023-04-21T11:14:52;12.37;;;8.77;;
5801;SDS011;2927;49.366;8.530;2023-04-21T11:17:18;15.47;;;9.40;;
5801;SDS011;2927;49.366;8.530;2023-04-21T11:19:46;11.67;;;9.17;;
5801;SDS011;2927;49.366;8.530;2023-04-21T11:22:15;12.70;;;9.10;;
5801;SDS011;2927;49.366;8.530;2023-04-21T11:24:44;18.17;;;9.43;;
5801;SDS011;2927;49.366;8.530;2023-04-21T11:27:11;14.47;;;9.73;;
5801;SDS011;2927;49.366;8.530;2023-04-21T11:29:38;12.37;;;9.37;;
5801;SDS011;2927;49.366;8.530;2023-04-21T11:32:07;13.03;;;8.80;;
5801;SDS011;2927;49.366;8.530;2023-04-21T11:34:35;11.93;;;8.10;;
5801;SDS011;2927;49.366;8.530;2023-04-21T11:37:02;14.50;;;9.90;;
5801;SDS011;2927;49.366;8.530;2023-04-21T11:39:27;11.87;;;9.47;;
5801;SDS011;2927;49.366;8.530;2023-04-21T11:41:53;14.33;;;8.70;;
5801;SDS011;2927;49.366;8.530;2023-04-21T11:44:35;16.50;;;9.37;;
5801;SDS011;2927;49.366;8.530;2023-04-21T11:47:18;8.27;;;6.90;;
5801;SDS011;2927;49.366;8.530;2023-04-21T11:49:45;11.80;;;8.37;;
5801;SDS011;2927;49.366;8.530;2023-04-21T11:52:28;10.40;;;7.77;;
5801;SDS011;2927;49.366;8.530;2023-04-21T11:55:00;10.87;;;8.77;;
5801;SDS011;2927;49.366;8.530;2023-04-21T11:57:30;12.87;;;8.77;;
5801;SDS011;2927;49.366;8.530;2023-04-21T11:59:57;9.97;;;7.60;;
5801;SDS011;2927;49.366;8.530;2023-04-21T12:02:26;14.60;;;9.10;;
5801;SDS011;2927;49.366;8.530;2023-04-21T12:04:56;11.13;;;7.70;;
5801;SDS011;2927;49.366;8.530;2023-04-21T12:07:30;13.00;;;9.40;;
5801;SDS011;2927;49.366;8.530;2023-04-21T12:10:00;12.97;;;8.83;;
5801;SDS011;2927;49.366;8.530;2023-04-21T12:12:27;14.37;;;7.97;;
5801;SDS011;2927;49.366;8.530;2023-04-21T12:14:53;9.90;;;7.00;;
5801;SDS011;2927;49.366;8.530;2023-04-21T12:17:19;11.67;;;7.90;;
5801;SDS011;2927;49.366;8.530;2023-04-21T12:19:45;11.90;;;9.33;;
5801;SDS011;2927;49.366;8.530;2023-04-21T12:22:14;12.97;;;8.70;;
5801;SDS011;2927;49.366;8.530;2023-04-21T12:24:42;13.50;;;8.70;;
5801;SDS011;2927;49.366;8.530;2023-04-21T12:32:12;8.23;;;6.43;;
5801;SDS011;2927;49.366;8.530;2023-04-21T12:34:37;8.53;;;6.33;;
5801;SDS011;2927;49.366;8.530;2023-04-21T12:37:03;9.40;;;6.70;;
5801;SDS011;2927;49.366;8.530;2023-04-21T12:39:28;11.30;;;7.93;;
5801;SDS011;2927;49.366;8.530;2023-04-21T12:41:55;16.03;;;8.50;;
5801;SDS011;2927;49.366;8.530;2023-04-21T12:44:21;16.47;;;9.60;;
5801;SDS011;2927;49.366;8.530;2023-04-21T12:49:23;12.40;;;9.60;;
5801;SDS011;2927;49.366;8.530;2023-04-21T12:51:49;14.70;;;8.73;;
5801;SDS011;2927;49.366;8.530;2023-04-21T12:54:15;13.77;;;9.37;;
5801;SDS011;2927;49.366;8.530;2023-04-21T12:56:40;9.83;;;7.90;;
5801;SDS011;2927;49.366;8.530;2023-04-21T12:59:06;12.70;;;9.70;;
5801;SDS011;2927;49.366;8.530;2023-04-21T13:01:34;11.13;;;8.57;;
5801;SDS011;2927;49.366;8.530;2023-04-21T13:04:01;9.90;;;8.30;;
5801;SDS011;2927;49.366;8.530;2023-04-21T13:06:26;11.67;;;9.13;;
5801;SDS011;2927;49.366;8.530;2023-04-21T13:08:52;14.10;;;10.47;;
5801;SDS011;2927;49.366;8.530;2023-04-21T13:11:18;11.87;;;9.87;;
5801;SDS011;2927;49.366;8.530;2023-04-21T13:13:43;12.00;;;9.90;;
5801;SDS011;2927;49.366;8.530;2023-04-21T13:16:10;11.70;;;8.23;;
5801;SDS011;2927;49.366;8.530;2023-04-21T13:18:35;10.03;;;7.80;;
5801;SDS011;2927;49.366;8.530;2023-04-21T13:21:03;13.20;;;9.60;;
5801;SDS011;2927;49.366;8.530;2023-04-21T13:23:28;11.33;;;9.67;;
5801;SDS011;2927;49.366;8.530;2023-04-21T13:25:54;18.20;;;11.17;;
5801;SDS011;2927;49.366;8.530;2023-04-21T13:28:20;11.00;;;9.60;;
5801;SDS011;2927;49.366;8.530;2023-04-21T13:30:46;10.33;;;9.10;;
5801;SDS011;2927;49.366;8.530;2023-04-21T13:33:12;9.63;;;8.53;;
5801;SDS011;2927;49.366;8.530;2023-04-21T13:35:37;12.47;;;9.17;;
5801;SDS011;2927;49.366;8.530;2023-04-21T13:38:03;12.63;;;9.50;;
5801;SDS011;2927;49.366;8.530;2023-04-21T13:40:29;13.20;;;10.00;;
5801;SDS011;2927;49.366;8.530;2023-04-21T13:42:55;10.73;;;8.70;;
5801;SDS011;2927;49.366;8.530;2023-04-21T13:45:22;14.20;;;10.63;;
5801;SDS011;2927;49.366;8.530;2023-04-21T13:47:48;11.70;;;9.37;;
5801;SDS011;2927;49.366;8.530;2023-04-21T13:50:15;14.00;;;10.93;;
5801;SDS011;2927;49.366;8.530;2023-04-21T13:52:42;14.87;;;10.77;;
5801;SDS011;2927;49.366;8.530;2023-04-21T13:55:09;15.03;;;10.80;;
5801;SDS011;2927;49.366;8.530;2023-04-21T13:57:37;12.40;;;10.03;;
5801;SDS011;2927;49.366;8.530;2023-04-21T14:00:03;13.17;;;10.40;;
5801;SDS011;2927;49.366;8.530;2023-04-21T14:02:37;15.00;;;9.57;;
5801;SDS011;2927;49.366;8.530;2023-04-21T14:05:04;11.97;;;8.90;;
5801;SDS011;2927;49.366;8.530;2023-04-21T14:07:30;9.17;;;7.97;;
5801;SDS011;2927;49.366;8.530;2023-04-21T14:09:56;14.27;;;9.43;;
5801;SDS011;2927;49.366;8.530;2023-04-21T14:12:22;15.10;;;10.67;;
5801;SDS011;2927;49.366;8.530;2023-04-21T14:14:50;14.10;;;9.93;;
5801;SDS011;2927;49.366;8.530;2023-04-21T14:17:16;15.07;;;11.13;;
5801;SDS011;2927;49.366;8.530;2023-04-21T14:19:42;14.77;;;10.63;;
5801;SDS011;2927;49.366;8.530;2023-04-21T14:22:09;16.50;;;10.57;;
5801;SDS011;2927;49.366;8.530;2023-04-21T14:24:35;14.03;;;10.57;;
5801;SDS011;2927;49.366;8.530;2023-04-21T14:27:00;12.73;;;10.03;;
5801;SDS011;2927;49.366;8.530;2023-04-21T14:29:26;10.80;;;8.43;;
5801;SDS011;2927;49.366;8.530;2023-04-21T14:31:51;12.60;;;9.93;;
5801;SDS011;2927;49.366;8.530;2023-04-21T14:34:21;12.70;;;8.93;;
5801;SDS011;2927;49.366;8.530;2023-04-21T14:36:50;16.40;;;9.77;;
5801;SDS011;2927;49.366;8.530;2023-04-21T14:39:16;12.23;;;10.00;;
5801;SDS011;2927;49.366;8.530;2023-04-21T14:41:42;16.10;;;12.00;;
5801;SDS011;2927;49.366;8.530;2023-04-21T14:44:08;14.70;;;10.50;;
5801;SDS011;2927;49.366;8.530;2023-04-21T14:46:34;13.80;;;9.73;;
5801;SDS011;2927;49.366;8.530;2023-04-21T14:49:00;15.53;;;10.10;;
5801;SDS011;2927;49.366;8.530;2023-04-21T14:51:26;11.17;;;9.03;;
5801;SDS011;2927;49.366;8.530;2023-04-21T14:53:51;13.00;;;9.47;;
5801;SDS011;2927;49.366;8.530;2023-04-21T14:56:17;13.40;;;9.73;;
5801;SDS011;2927;49.366;8.530;2023-04-21T14:58:43;15.57;;;11.50;;
5801;SDS011;2927;49.366;8.530;2023-04-21T15:01:10;15.47;;;10.60;;
5801;SDS011;2927;49.366;8.530;2023-04-21T15:03:36;13.87;;;11.00;;